Woburn, MA (01813)

12:13 PM EST on November 22, 2014 (GMT -0500)
Woburn Garden | Change Station
CLOSE
Current Station
Personal Weather Station
Location: Woburn, MA
Elevation: 115 ft
Nearby Weather Stations

Elev 115 ft 42.51 °N, 71.15 °W | Updated 12 minutes ago

Partly Cloudy
Partly Cloudy
36.2 °F
Feels Like 36 °F
N
3.0
Wind Variable Wind from SW
Gusts 7.0 mph

Today
High -- | Low -- °F
--% Chance of Precip.
Yesterday
High -- | Low -- °F
Precip. -- in
6:44 AM 4:16 PM
New Moon, 0% visible
Pressure 30.29 in
Visibility 10.0 miles
Clouds Clear
Windchill 36 °F
Dew Point 13 °F
Humidity 39%
Rainfall 0.00 in
Snow Depth Not available.
UV 3 out of 12
Pollen .10 out of 12
Air Quality Not available.
Flu Activity Not available.
METAR KBED 221656Z 22010KT 10SM CLR 01/M13 A3024 RMK AO2 SLP256 T00111133

More Conditions Fewer Conditions

Pressure 30.29 in
Visibility 10.0 miles
Clouds Clear
Windchill 36 °F
Dew Point 13 °F
Humidity 39%
Rainfall 0.00 in
Snow Depth Not available.
UV 3 out of 12
Pollen .10 out of 12
Air Quality Not available.
Flu Activity Not available.
METAR KBED 221656Z 22010KT 10SM CLR 01/M13 A3024 RMK AO2 SLP256 T00111133

More Conditions Fewer Conditions

10-Day Weather Forecast

Almanac

Astronomy

Nov. 22, 2014 Rise Set
Actual Time
Civil Twilight
Nautical Twilight
Astronomical Twilight
Moon
Length of Visible Light
Length of Day
Tomorrow will be .
, % of the Moon is Illuminated

Today's Extremes

State Highs State Lows

Community

WunderPhotos

Upload Photos

1,772,861 photos uploaded!

WunderBlogs® & News

Nearby

Air Quality

  Air Quality AQ Index Pollutant
Not available.

Snow Depth

Station Depth Elevation

Earthquake Activity

City Distance Mag. Time & Date
Minimum magnitude displayed is 2.5.

Coastal Water Temperatures

Place Temperature

Nearby Weather Stations